Time;durP1;ratioP1;P1;durP2;ratioP2;P2;SDS_P1;SDS_P2;PMS_P1;PMS_P2;Temp;Humidity;BMP_temperature;BMP_pressure;BME280_temperature;BME280_humidity;BME280_pressure;Samples;Min_cycle;Max_cycle;Signal;HPM_P1;HPM_P2
2023/04/05 00:07:37;;;;;;;384.20;347.00;;;;;;;21.31;44.07;100608.94;20627753;28;20058;-77
2023/04/05 00:17:37;;;;;;;378.38;341.98;;;;;;;21.28;44.23;100596.84;20578650;28;20038;-79
2023/04/05 00:27:42;;;;;;;372.42;336.75;;;;;;;21.27;43.82;100599.59;20577269;28;20042;-78
2023/04/05 00:37:42;;;;;;;399.05;360.45;;;;;;;21.24;43.84;100590.13;20584795;28;20051;-75
2023/04/05 00:47:44;;;;;;;436.58;393.92;;;;;;;21.22;43.63;100592.03;20588197;28;20124;-80
2023/04/05 00:57:45;;;;;;;481.90;435.53;;;;;;;21.20;43.85;100595.75;20568890;28;20063;-78
2023/04/05 01:07:53;;;;;;;413.30;373.23;;;;;;;21.18;43.94;100590.59;20589041;28;20053;-79
2023/04/05 01:17:56;;;;;;;422.75;381.52;;;;;;;21.17;43.79;100582.81;20570524;28;21176;-79
2023/04/05 01:27:56;;;;;;;358.45;324.45;;;;;;;21.15;43.78;100582.91;20663626;28;20050;-78
2023/04/05 01:38:02;;;;;;;408.92;369.30;;;;;;;21.13;44.07;100581.34;20681925;28;20882;-78
2023/04/05 01:48:03;;;;;;;395.90;357.83;;;;;;;21.11;44.02;100573.56;20665812;28;20046;-80
2023/04/05 01:58:04;;;;;;;398.27;359.95;;;;;;;21.09;44.41;100575.47;20674606;28;20047;-79
2023/04/05 02:08:05;;;;;;;429.90;388.05;;;;;;;21.04;44.16;100578.44;20658870;28;20292;-80
2023/04/05 02:18:06;;;;;;;414.40;374.30;;;;;;;21.03;44.13;100566.25;20646312;28;20478;-80
2023/04/05 02:28:07;;;;;;;424.30;382.73;;;;;;;21.00;44.10;100563.84;20670819;28;20059;-80
2023/04/05 02:38:08;;;;;;;461.73;416.98;;;;;;;21.01;44.27;100569.94;20648693;28;21159;-80
2023/04/05 02:48:09;;;;;;;442.02;398.90;;;;;;;20.99;44.23;100556.88;20671215;28;20037;-81
2023/04/05 02:58:13;;;;;;;438.80;396.02;;;;;;;20.96;44.37;100562.38;20678702;28;20037;-79
2023/04/05 03:08:17;;;;;;;480.98;435.00;;;;;;;20.94;44.31;100562.47;20675456;28;20046;-78
2023/04/05 03:18:17;;;;;;;393.65;355.98;;;;;;;20.92;44.28;100563.56;20673637;28;20441;-79
2023/04/05 03:28:18;;;;;;;379.63;343.38;;;;;;;20.91;44.35;100577.66;20670819;28;20034;-80
2023/04/05 03:38:18;;;;;;;396.70;358.60;;;;;;;20.90;44.14;100576.84;20661983;28;20062;-77
2023/04/05 03:48:20;;;;;;;375.05;339.42;;;;;;;20.90;43.67;100584.72;20652374;28;20043;-71
2023/04/05 03:58:21;;;;;;;374.85;339.27;;;;;;;20.90;43.79;100587.34;20640032;28;20085;-72
2023/04/05 04:08:22;;;;;;;399.60;361.05;;;;;;;20.90;44.13;100592.63;20631214;28;20058;-72
2023/04/05 04:18:23;;;;;;;382.92;345.98;;;;;;;20.94;44.57;100601.13;20636150;28;20081;-74
2023/04/05 04:28:23;;;;;;;385.02;348.08;;;;;;;20.88;43.92;100594.53;20633786;28;20060;-80
2023/04/05 04:38:25;;;;;;;370.75;335.27;;;;;;;20.95;44.81;100594.94;20646805;28;20149;-78
2023/04/05 04:48:25;;;;;;;419.55;377.90;;;;;;;21.02;44.13;100597.94;20667553;28;20041;-75
2023/04/05 04:58:26;;;;;;;393.38;355.17;;;;;;;21.07;44.56;100607.19;20676997;28;20046;-75
2023/04/05 05:08:26;;;;;;;428.65;385.90;;;;;;;21.15;44.39;100608.41;20644409;28;20065;-75
2023/04/05 05:18:27;;;;;;;412.38;371.98;;;;;;;21.21;44.33;100607.97;20664451;28;20069;-75
2023/04/05 05:28:27;;;;;;;454.88;410.05;;;;;;;21.24;44.44;100626.19;20655088;28;20050;-75
2023/04/05 05:38:28;;;;;;;482.23;435.27;;;;;;;21.31;44.43;100621.28;20658185;28;20050;-77
2023/04/05 05:48:28;;;;;;;472.05;426.13;;;;;;;21.37;44.42;100620.81;20651772;28;20046;-77
2023/04/05 05:58:29;;;;;;;535.55;485.15;;;;;;;21.43;44.59;100615.94;20657094;28;20145;-76
2023/04/05 06:08:29;;;;;;;536.90;486.40;;;;;;;21.49;44.48;100619.91;20662109;28;20039;-78
2023/04/05 06:18:30;;;;;;;554.92;503.17;;;;;;;21.53;44.00;100615.25;20667564;28;20046;-78
2023/04/05 06:28:30;;;;;;;489.08;441.95;;;;;;;21.59;43.61;100626.22;20665803;28;20041;-78
2023/04/05 06:38:30;;;;;;;450.75;406.38;;;;;;;21.64;43.70;100625.00;20667014;28;20041;-79
2023/04/05 06:48:32;;;;;;;443.27;399.55;;;;;;;21.68;43.71;100627.31;20664092;28;20393;-78
2023/04/05 06:58:32;;;;;;;474.10;427.98;;;;;;;21.72;43.73;100625.28;20670023;28;20049;-78
2023/04/05 07:08:33;;;;;;;465.98;420.30;;;;;;;;;;20668292;28;20038;-77
2023/04/05 07:18:33;;;;;;;452.92;408.38;;;;;;;21.77;43.26;100628.41;20670954;28;20109;-75
2023/04/05 07:28:42;;;;;;;466.60;420.75;;;;;;;21.78;42.88;100634.53;20673196;28;20464;-76
2023/04/05 07:38:43;;;;;;;422.60;380.80;;;;;;;21.69;35.53;100626.34;20698268;28;20065;-80
2023/04/05 07:48:47;;;;;;;417.65;376.45;;;;;;;21.66;36.65;100623.94;20697500;28;20056;-75
2023/04/05 07:58:50;;;;;;;454.15;409.73;;;;;;;21.69;38.98;100622.84;20658572;28;20151;-79
2023/04/05 08:08:51;;;;;;;403.33;363.92;;;;;;;21.71;39.83;100618.31;20675569;28;20053;-77
2023/04/05 08:18:51;;;;;;;409.85;369.75;;;;;;;21.68;39.39;100606.22;20676150;28;20046;-79
2023/04/05 08:28:52;;;;;;;414.23;373.42;;;;;;;21.68;39.95;100611.50;20674188;28;20050;-77
2023/04/05 08:38:53;;;;;;;428.45;386.35;;;;;;;21.67;40.35;100612.44;20685623;28;20107;-77
2023/04/05 08:48:53;;;;;;;415.85;375.15;;;;;;;21.68;40.63;100610.63;20680344;28;20046;-77
2023/04/05 08:59:02;;;;;;;411.17;370.90;;;;;;;21.66;40.60;100597.59;20682718;28;20137;-78
2023/04/05 09:09:07;;;;;;;416.77;376.10;;;;;;;21.66;40.51;100602.03;20677601;28;20142;-78
2023/04/05 09:19:08;;;;;;;449.65;405.65;;;;;;;21.64;40.54;100596.88;20669809;28;20057;-73
2023/04/05 09:29:28;;;;;;;412.17;371.70;;;;;;;21.64;40.52;100585.47;20656832;28;20046;-72
2023/04/05 09:39:31;;;;;;;438.10;395.23;;;;;;;21.64;40.63;100581.06;20666829;28;20566;-74
2023/04/05 09:49:32;;;;;;;;;;;;;;;21.66;40.55;100573.88;20660402;28;20096;-71
2023/04/05 09:59:34;;;;;;;394.42;356.15;;;;;;;21.70;40.71;100569.19;20664271;28;19976;-72
2023/04/05 10:09:35;;;;;;;432.90;390.15;;;;;;;21.72;40.45;100560.22;20662888;28;20046;-73
2023/04/05 10:19:47;;;;;;;451.80;407.50;;;;;;;21.78;40.59;100561.56;20671339;28;20068;-72
2023/04/05 10:30:07;;;;;;;419.65;378.33;;;;;;;21.83;41.00;100545.38;20661351;28;20099;-71
2023/04/05 10:40:11;;;;;;;426.83;384.75;;;;;;;21.88;40.87;100543.22;20662261;28;20501;-72
2023/04/05 10:50:20;;;;;;;414.58;373.77;;;;;;;21.93;41.01;100543.69;20649164;28;20081;-72
2023/04/05 11:00:22;;;;;;;417.42;376.15;;;;;;;21.97;41.24;100528.47;20656400;28;20046;-72
2023/04/05 11:10:24;;;;;;;430.90;388.20;;;;;;;22.05;41.35;100529.53;20649086;28;20093;-72
2023/04/05 11:20:24;;;;;;;420.27;378.52;;;;;;;22.14;41.41;100521.88;20650837;28;20149;-71
2023/04/05 11:30:47;;;;;;;437.85;394.27;;;;;;;22.20;41.61;100522.22;20661122;28;20375;-72
2023/04/05 11:40:48;;;;;;;395.92;356.77;;;;;;;22.27;41.64;100511.19;20645788;28;20622;-72
2023/04/05 11:50:50;;;;;;;403.50;363.65;;;;;;;22.33;41.37;100494.88;20673179;28;20413;-72
2023/04/05 12:01:01;;;;;;;417.67;376.13;;;;;;;22.41;41.00;100489.00;20682376;28;20042;-73
2023/04/05 12:11:06;;;;;;;452.33;407.57;;;;;;;22.47;41.00;100489.34;20694289;28;20038;-72
2023/04/05 12:21:08;;;;;;;444.67;400.42;;;;;;;22.55;40.70;100470.25;20691667;28;20053;-73
2023/04/05 12:31:10;;;;;;;501.33;452.90;;;;;;;22.62;40.90;100466.13;20681391;28;20104;-73
2023/04/05 12:41:10;;;;;;;492.52;444.75;;;;;;;22.69;40.84;100462.03;20677873;28;20125;-72
2023/04/05 12:51:15;;;;;;;507.63;458.83;;;;;;;22.77;40.32;100456.09;20693543;28;20069;-72
2023/04/05 13:01:17;;;;;;;478.05;431.20;;;;;;;22.84;40.30;100452.00;20702037;28;20129;-74
2023/04/05 13:11:18;;;;;;;509.33;460.25;;;;;;;22.94;40.21;100430.09;20691218;28;20049;-73
2023/04/05 13:21:19;;;;;;;510.83;461.53;;;;;;;23.01;40.09;100432.09;20697697;28;20061;-72
2023/04/05 13:31:20;;;;;;;548.47;496.48;;;;;;;23.03;39.86;100438.09;20707811;28;20291;-73
2023/04/05 13:41:22;;;;;;;587.10;532.20;;;;;;;23.08;39.92;100423.63;20658938;28;20057;-72
2023/04/05 13:51:23;;;;;;;647.10;587.80;;;;;;;23.11;39.50;100421.56;20658391;28;20053;-71
2023/04/05 14:01:24;;;;;;;644.87;585.73;;;;;;;23.14;39.28;100418.69;20660969;28;20046;-72
2023/04/05 14:11:25;;;;;;;661.88;601.53;;;;;;;23.16;39.13;100408.84;20648423;28;20097;-74
2023/04/05 14:21:26;;;;;;;592.83;537.50;;;;;;;23.23;38.81;100403.03;20656113;28;20054;-74
2023/04/05 14:31:42;;;;;;;516.35;466.38;;;;;;;23.27;38.54;100409.75;20676231;28;20046;-70
2023/04/05 14:41:51;;;;;;;483.92;436.42;;;;;;;23.33;38.47;100402.09;20669951;28;20026;-70
2023/04/05 14:51:51;;;;;;;455.80;410.00;;;;;;;23.40;38.23;100397.13;20683351;28;20052;-70
2023/04/05 15:01:52;;;;;;;453.70;408.10;;;;;;;23.52;37.41;100394.38;20669809;28;20034;-75
2023/04/05 15:11:55;;;;;;;437.45;392.95;;;;;;;23.64;37.21;100403.88;20676334;28;20053;-73
2023/04/05 15:21:55;;;;;;;441.02;396.10;;;;;;;23.83;36.63;100414.50;20685399;28;20061;-74
2023/04/05 15:31:57;;;;;;;441.10;396.50;;;;;;;23.49;27.05;100404.25;20674770;28;20585;-73
2023/04/05 15:42:02;;;;;;;456.17;410.67;;;;;;;23.30;24.53;100404.19;20699983;28;20060;-73
2023/04/05 15:52:02;;;;;;;438.33;394.40;;;;;;;23.46;29.69;100411.59;20696308;28;20057;-72
2023/04/05 16:02:13;;;;;;;418.73;376.42;;;;;;;23.41;31.36;100416.47;20694731;28;20042;-72
2023/04/05 16:12:14;;;;;;;409.00;368.03;;;;;;;23.38;32.48;100414.09;20658771;28;20050;-74
2023/04/05 16:22:23;;;;;;;421.33;378.95;;;;;;;23.29;32.76;100421.84;20602761;28;20041;-71
2023/04/05 16:32:23;;;;;;;397.85;357.30;;;;;;;23.13;32.02;100419.66;20575782;28;20047;-77
2023/04/05 16:42:31;;;;;;;397.55;357.77;;;;;;;22.85;30.65;100418.50;20591617;28;20069;-76
2023/04/05 16:52:31;;;;;;;384.63;346.48;;;;;;;22.75;31.73;100415.78;20610499;28;20098;-71
2023/04/05 17:02:31;;;;;;;330.13;297.40;;;;;;;22.74;33.41;100418.56;20633584;28;20084;-73
2023/04/05 17:12:34;;;;;;;344.80;310.83;;;;;;;22.62;34.57;100420.41;20653568;28;20722;-70
2023/04/05 17:22:41;;;;;;;321.92;290.40;;;;;;;22.54;35.02;100419.28;20654230;28;20045;-73
2023/04/05 17:32:41;;;;;;;331.27;298.88;;;;;;;22.47;35.45;100430.44;20654540;28;20450;-72
2023/04/05 17:42:41;;;;;;;346.60;312.60;;;;;;;22.43;35.95;100429.03;20648789;28;20108;-72
2023/04/05 17:52:43;;;;;;;363.52;328.20;;;;;;;22.38;35.96;100432.88;20654801;28;21914;-74
2023/04/05 18:02:44;;;;;;;395.60;355.33;;;;;;;22.41;36.73;100437.09;20663773;28;20081;-73
2023/04/05 18:12:46;;;;;;;389.88;350.60;;;;;;;22.41;37.94;100452.91;20600041;28;20162;-71
2023/04/05 18:22:53;;;;;;;405.73;364.42;;;;;;;22.43;39.33;100452.78;20604623;28;20047;-71
2023/04/05 18:32:53;;;;;;;385.60;346.55;;;;;;;22.43;40.53;100458.06;20616303;28;20047;-70
2023/04/05 18:43:14;;;;;;;392.90;353.05;;;;;;;22.43;41.35;100464.16;20597169;28;20050;-71
2023/04/05 18:53:15;;;;;;;387.35;348.30;;;;;;;22.37;41.25;100451.44;20593006;28;20102;-71
2023/04/05 19:03:16;;;;;;;428.38;385.33;;;;;;;22.36;40.74;100457.66;20592693;28;20043;-75
2023/04/05 19:13:17;;;;;;;408.17;367.45;;;;;;;22.33;41.00;100457.94;20589091;28;20042;-71
2023/04/05 19:23:17;;;;;;;390.70;351.75;;;;;;;22.17;38.20;100467.06;20589729;28;20073;-75
2023/04/05 19:33:25;;;;;;;401.38;361.77;;;;;;;22.16;38.96;100465.41;20604831;28;20822;-74
2023/04/05 19:43:25;;;;;;;410.10;369.48;;;;;;;22.15;39.52;100505.91;20605481;28;20786;-71
2023/04/05 19:53:38;;;;;;;423.75;381.63;;;;;;;22.13;40.27;100507.84;20596821;28;20125;-70
2023/04/05 20:03:40;;;;;;;405.52;365.65;;;;;;;22.09;40.60;100519.59;20601817;28;20924;-71
2023/04/05 20:13:51;;;;;;;365.85;329.50;;;;;;;22.07;41.04;100508.34;20628470;28;20039;-72
2023/04/05 20:23:52;;;;;;;397.05;357.85;;;;;;;22.02;41.12;100510.47;20615911;28;20401;-72
2023/04/05 20:33:57;;;;;;;392.10;353.50;;;;;;;21.99;41.19;100513.38;20615751;28;20038;-71
2023/04/05 20:43:59;;;;;;;386.35;348.70;;;;;;;21.96;41.05;100510.97;20622085;28;20042;-72
2023/04/05 20:54:00;;;;;;;384.80;347.35;;;;;;;21.94;41.44;100519.00;20594500;28;20126;-73
2023/04/05 21:04:00;;;;;;;426.60;384.48;;;;;;;21.94;41.47;100521.66;20595428;28;20038;-72
2023/04/05 21:14:08;;;;;;;431.27;388.98;;;;;;;21.90;41.48;100528.97;20595957;28;20042;-72
2023/04/05 21:24:08;;;;;;;405.73;365.90;;;;;;;21.87;41.76;100526.56;20595966;28;20050;-71
2023/04/05 21:34:09;;;;;;;370.55;334.50;;;;;;;21.84;42.01;100533.88;20583933;28;20502;-70
2023/04/05 21:44:09;;;;;;;437.92;394.55;;;;;;;21.83;42.22;100540.09;20599802;28;20613;-72
2023/04/05 21:54:12;;;;;;;427.30;385.38;;;;;;;21.79;42.02;100541.28;20590243;28;20051;-70
2023/04/05 22:04:13;;;;;;;431.10;388.60;;;;;;;21.77;42.22;100544.06;20586561;28;20034;-70
2023/04/05 22:14:14;;;;;;;440.15;397.00;;;;;;;21.74;42.23;100550.41;20589296;28;20065;-70
2023/04/05 22:24:15;;;;;;;429.05;386.83;;;;;;;21.70;42.39;100559.50;20598514;28;20051;-70
2023/04/05 22:34:15;;;;;;;420.00;378.80;;;;;;;21.69;42.30;100555.19;20590448;28;20104;-70
2023/04/05 22:44:16;;;;;;;412.85;372.58;;;;;;;21.65;42.77;100548.47;20596467;28;20396;-72
2023/04/05 22:54:16;;;;;;;444.38;400.92;;;;;;;21.63;42.48;100552.19;20597226;28;20053;-71
2023/04/05 23:04:19;;;;;;;445.05;401.63;;;;;;;21.62;42.42;100553.13;20585208;28;20309;-72
2023/04/05 23:14:19;;;;;;;414.60;374.07;;;;;;;21.57;42.42;100540.34;20589681;28;20446;-71
2023/04/05 23:24:21;;;;;;;439.90;396.70;;;;;;;21.57;42.38;100542.97;20592966;28;20047;-72
2023/04/05 23:34:21;;;;;;;490.55;443.65;;;;;;;21.52;42.34;100530.09;20602531;28;20360;-71
2023/04/05 23:44:21;;;;;;;506.40;458.50;;;;;;;21.50;42.36;100524.09;20594658;28;20161;-72
2023/04/05 23:54:25;;;;;;;453.67;409.48;;;;;;;21.48;42.56;100523.38;20583589;28;20074;-70
